Time;durP1;ratioP1;P1;durP2;ratioP2;P2;SDS_P1;SDS_P2;PMS_P1;PMS_P2;Temp;Humidity;BMP_temperature;BMP_pressure;BME280_temperature;BME280_humidity;BME280_pressure;Samples;Min_cycle;Max_cycle;Signal;HPM_P1;HPM_P2
2023/03/14 00:01:25;;;;;;;12.88;5.72;;;;;;;1.05;72.60;101951.56;1829041;78;21183;-44
2023/03/14 00:03:54;;;;;;;18.42;6.83;;;;;;;1.05;72.76;101950.27;1825891;78;21462;-45
2023/03/14 00:06:23;;;;;;;13.80;5.67;;;;;;;1.04;72.88;101948.94;1820333;79;21490;-41
2023/03/14 00:08:52;;;;;;;20.10;6.42;;;;;;;1.03;72.81;101941.98;1820288;79;21476;-42
2023/03/14 00:11:22;;;;;;;18.25;6.80;;;;;;;1.04;72.84;101945.05;1820116;79;21062;-43
2023/03/14 00:13:54;;;;;;;17.17;7.72;;;;;;;1.03;72.75;101944.15;1815195;79;21026;-44
2023/03/14 00:16:22;;;;;;;17.42;6.83;;;;;;;1.03;72.69;101946.74;1806372;78;21563;-45
2023/03/14 00:18:51;;;;;;;20.40;7.22;;;;;;;1.04;72.69;101944.62;1799675;79;21057;-42
2023/03/14 00:21:20;;;;;;;16.93;6.58;;;;;;;1.04;72.75;101933.38;1804150;79;21488;-40
2023/03/14 00:23:49;;;;;;;17.60;6.58;;;;;;;1.04;72.76;101932.95;1804283;79;21541;-43
2023/03/14 00:26:20;;;;;;;16.52;6.15;;;;;;;1.04;72.80;101935.53;1806172;78;21136;-42
2023/03/14 00:28:50;;;;;;;20.68;6.78;;;;;;;1.04;72.79;101936.84;1792795;79;21158;-42
2023/03/14 00:31:19;;;;;;;18.30;7.37;;;;;;;1.04;72.70;101936.84;1778350;78;21066;-42
2023/03/14 00:33:48;;;;;;;10.68;5.20;;;;;;;1.06;72.72;101939.47;1825671;78;21058;-43
2023/03/14 00:36:20;;;;;;;15.78;6.80;;;;;;;1.06;72.74;101937.73;1825690;78;21109;-42
2023/03/14 00:38:51;;;;;;;17.55;7.67;;;;;;;1.06;72.79;101929.95;1825497;78;21561;-42
2023/03/14 00:41:22;;;;;;;21.27;8.60;;;;;;;1.09;72.85;101927.86;1814339;78;21045;-42
2023/03/14 00:43:52;;;;;;;18.40;8.10;;;;;;;1.08;72.84;101922.20;1806221;79;21095;-42
2023/03/14 00:46:21;;;;;;;24.25;8.75;;;;;;;1.09;72.91;101930.45;1806498;79;21127;-42
2023/03/14 00:48:50;;;;;;;19.27;8.43;;;;;;;1.09;72.91;101933.91;1806210;79;21203;-42
2023/03/14 00:51:18;;;;;;;18.67;7.78;;;;;;;1.09;72.93;101923.97;1806139;79;21165;-42
2023/03/14 00:53:47;;;;;;;21.15;8.13;;;;;;;1.09;72.95;101925.27;1806311;79;21145;-42
2023/03/14 00:56:16;;;;;;;25.95;9.08;;;;;;;1.07;72.93;101920.05;1806305;79;21152;-42
2023/03/14 00:58:46;;;;;;;15.03;6.45;;;;;;;1.05;73.01;101923.44;1806194;79;21086;-42
2023/03/14 01:01:18;;;;;;;26.93;9.40;;;;;;;1.03;73.03;101915.62;1806353;79;21619;-42
2023/03/14 01:03:47;;;;;;;22.77;7.67;;;;;;;0.99;73.08;101915.11;1806196;79;21532;-42
2023/03/14 01:06:20;;;;;;;27.17;10.80;;;;;;;0.96;73.02;101915.08;1806252;79;21165;-42
2023/03/14 01:08:49;;;;;;;20.45;8.38;;;;;;;0.93;73.15;101921.49;1799500;78;21185;-42
2023/03/14 01:11:20;;;;;;;21.23;8.38;;;;;;;0.89;73.12;101919.69;1800616;78;21073;-42
2023/03/14 01:13:49;;;;;;;21.25;5.35;;;;;;;0.87;73.16;101922.25;1782605;78;21054;-41
2023/03/14 01:16:19;;;;;;;23.07;8.23;;;;;;;0.85;73.29;101907.08;1795007;79;21037;-41
2023/03/14 01:18:49;;;;;;;20.70;7.25;;;;;;;0.83;73.27;101906.18;1799704;79;21077;-44
2023/03/14 01:21:21;;;;;;;16.85;5.78;;;;;;;0.82;73.23;101908.73;1797811;79;21148;-45
2023/03/14 01:23:51;;;;;;;16.45;7.37;;;;;;;0.81;73.20;101910.86;1781219;79;21159;-44
2023/03/14 01:26:23;;;;;;;19.95;7.28;;;;;;;0.78;73.32;101907.80;1804896;79;21233;-46
2023/03/14 01:28:53;;;;;;;24.50;8.88;;;;;;;0.74;73.21;101900.38;1805370;79;21507;-47
2023/03/14 01:31:22;;;;;;;25.15;8.03;;;;;;;0.73;73.22;101896.02;1805816;79;21061;-45
2023/03/14 01:33:52;;;;;;;51.60;9.45;;;;;;;0.71;73.19;101905.50;1781211;79;21074;-45
2023/03/14 01:36:21;;;;;;;25.12;8.28;;;;;;;0.68;73.17;101906.75;1785548;79;21502;-44
2023/03/14 01:38:50;;;;;;;22.17;7.45;;;;;;;0.67;73.08;101901.10;1798077;79;21097;-45
2023/03/14 01:41:24;;;;;;;25.62;8.40;;;;;;;0.66;73.01;101900.63;1789998;80;21295;-45
2023/03/14 01:43:53;;;;;;;27.00;9.98;;;;;;;0.63;73.02;101904.87;1763770;80;21149;-47
2023/03/14 01:46:42;;;;;;;21.77;7.92;;;;;;;0.59;73.14;101911.75;1762335;80;21074;-43
2023/03/14 01:49:33;;;;;;;20.25;7.50;;;;;;;0.58;73.20;101910.84;1795508;80;21525;-42
2023/03/14 01:52:12;;;;;;;17.82;6.83;;;;;;;0.57;73.27;101913.00;1792119;79;21103;-45
2023/03/14 01:54:52;;;;;;;24.65;8.85;;;;;;;0.53;73.21;101912.89;1781513;80;21066;-45
2023/03/14 01:57:32;;;;;;;19.42;7.33;;;;;;;0.51;73.21;101913.28;1783671;80;21564;-45
2023/03/14 02:00:15;;;;;;;26.95;8.53;;;;;;;0.50;73.17;101911.52;1764674;81;21587;-46
2023/03/14 02:02:46;;;;;;;19.23;7.20;;;;;;;0.49;73.15;101906.77;1780118;80;21626;-45
2023/03/14 02:05:20;;;;;;;24.80;8.10;;;;;;;0.48;73.19;101904.14;1785329;79;21169;-44
2023/03/14 02:08:01;;;;;;;25.97;9.63;;;;;;;0.44;73.32;101901.03;1780543;80;21084;-44
2023/03/14 02:10:43;;;;;;;19.73;7.50;;;;;;;0.43;73.46;101907.08;1783808;80;21608;-44
2023/03/14 02:13:13;;;;;;;16.30;6.87;;;;;;;0.43;73.42;101900.60;1784917;80;21102;-41
2023/03/14 02:15:44;;;;;;;28.98;9.00;;;;;;;0.45;73.29;101902.80;1762804;80;21090;-44
2023/03/14 02:18:18;;;;;;;20.23;7.20;;;;;;;0.44;73.23;101909.67;1788472;78;21589;-44
2023/03/14 02:21:29;;;;;;;22.70;9.33;;;;;;;0.46;73.21;101918.78;1790206;80;21135;-44
2023/03/14 02:24:17;;;;;;;21.50;7.47;;;;;;;0.47;73.24;101912.77;1795466;80;21175;-45
2023/03/14 02:27:08;;;;;;;20.35;9.35;;;;;;;0.48;73.35;101914.50;1794854;79;21157;-45
2023/03/14 02:29:41;;;;;;;27.25;9.13;;;;;;;0.49;73.46;101909.79;1795193;79;21255;-43
2023/03/14 02:32:12;;;;;;;24.60;8.55;;;;;;;0.50;73.53;101905.05;1795462;79;21134;-46
2023/03/14 02:34:44;;;;;;;23.00;9.05;;;;;;;0.52;73.63;101912.45;1791280;80;21478;-45
2023/03/14 02:37:17;;;;;;;22.60;8.80;;;;;;;0.52;73.77;101909.86;1789767;78;21103;-44
2023/03/14 02:39:49;;;;;;;28.47;9.65;;;;;;;0.52;73.95;101911.16;1795577;80;21066;-46
2023/03/14 02:42:18;;;;;;;17.23;7.62;;;;;;;0.54;74.08;101919.41;1764466;81;21090;-47
2023/03/14 02:44:55;;;;;;;21.33;8.00;;;;;;;0.60;74.02;101916.50;1764461;81;21599;-44
2023/03/14 02:47:27;;;;;;;21.55;9.50;;;;;;;0.65;73.95;101918.34;1764395;81;21082;-44
2023/03/14 02:49:59;;;;;;;21.80;8.60;;;;;;;0.69;73.85;101914.96;1764182;81;21082;-43
2023/03/14 02:52:28;;;;;;;23.70;8.60;;;;;;;0.72;73.86;101908.95;1764090;81;21152;-44
2023/03/14 02:54:57;;;;;;;28.07;10.75;;;;;;;0.75;73.89;101906.44;1763949;81;21117;-42
2023/03/14 02:57:27;;;;;;;31.45;10.38;;;;;;;0.74;74.05;101905.56;1761463;81;21158;-42
2023/03/14 02:59:57;;;;;;;23.62;8.83;;;;;;;0.75;74.20;101902.55;1761431;81;21114;-44
2023/03/14 03:02:25;;;;;;;25.40;8.63;;;;;;;0.79;74.06;101903.05;1761455;81;21095;-44
2023/03/14 03:04:54;;;;;;;28.73;8.50;;;;;;;0.80;74.01;101887.09;1767632;80;21136;-44
2023/03/14 03:07:22;;;;;;;17.40;7.58;;;;;;;0.80;74.00;101881.48;1780972;80;21095;-44
2023/03/14 03:09:51;;;;;;;27.07;9.20;;;;;;;0.81;74.01;101883.64;1781108;80;21114;-42
2023/03/14 03:12:20;;;;;;;20.32;8.18;;;;;;;0.83;73.99;101888.43;1780955;80;21160;-42
2023/03/14 03:14:49;;;;;;;31.33;9.90;;;;;;;0.85;74.13;101885.44;1779507;80;21566;-42
2023/03/14 03:17:18;;;;;;;27.37;10.23;;;;;;;0.85;74.17;101893.22;1780878;80;21180;-42
2023/03/14 03:19:46;;;;;;;25.70;10.23;;;;;;;0.87;74.16;101896.75;1780993;80;21098;-42
2023/03/14 03:22:15;;;;;;;27.70;9.60;;;;;;;0.87;74.11;101895.45;1780982;80;21043;-43
2023/03/14 03:24:44;;;;;;;25.60;9.50;;;;;;;0.86;74.10;101898.88;1781040;80;21078;-44
2023/03/14 03:27:13;;;;;;;23.73;8.68;;;;;;;0.85;74.09;101895.41;1764225;80;21554;-43
2023/03/14 03:29:41;;;;;;;25.55;8.43;;;;;;;0.84;74.08;101894.08;1761393;81;21122;-43
2023/03/14 03:32:10;;;;;;;24.65;9.40;;;;;;;0.83;74.05;101893.61;1761615;80;21078;-43
2023/03/14 03:34:39;;;;;;;22.13;8.33;;;;;;;0.82;73.96;101907.44;1761466;81;21047;-43
2023/03/14 03:37:08;;;;;;;30.50;9.40;;;;;;;0.82;73.95;101907.44;1762751;80;21182;-42
2023/03/14 03:39:38;;;;;;;22.45;8.63;;;;;;;0.82;73.95;101904.84;1761141;81;21215;-43
2023/03/14 03:42:07;;;;;;;31.73;10.08;;;;;;;0.82;73.98;101911.33;1761360;81;21176;-45
2023/03/14 03:44:36;;;;;;;28.00;9.70;;;;;;;0.83;73.97;101906.58;1761444;81;21133;-43
2023/03/14 03:47:05;;;;;;;34.27;9.68;;;;;;;0.84;74.06;101897.97;1767924;80;21050;-44
2023/03/14 03:49:34;;;;;;;30.45;10.75;;;;;;;0.88;74.14;101894.59;1781042;80;21044;-43
2023/03/14 03:52:03;;;;;;;28.60;10.00;;;;;;;0.90;74.07;101893.76;1781106;80;21099;-44
2023/03/14 03:54:31;;;;;;;36.15;11.97;;;;;;;0.93;74.03;101896.42;1781155;80;21048;-41
2023/03/14 03:57:00;;;;;;;39.55;11.90;;;;;;;0.97;74.15;101899.95;1777813;80;21165;-42
2023/03/14 03:59:29;;;;;;;35.00;11.45;;;;;;;1.01;74.18;101897.86;1761531;81;21131;-41
2023/03/14 04:01:58;;;;;;;28.77;11.48;;;;;;;1.07;74.11;101898.00;1761485;81;21045;-41
2023/03/14 04:04:27;;;;;;;32.13;8.88;;;;;;;1.10;74.18;101896.73;1761545;81;21145;-41
2023/03/14 04:06:56;;;;;;;23.32;8.75;;;;;;;1.16;74.20;101897.27;1761468;81;21078;-43
2023/03/14 04:09:25;;;;;;;27.65;10.48;;;;;;;1.22;74.19;101899.09;1778372;80;21097;-43
2023/03/14 04:12:01;;;;;;;38.75;11.48;;;;;;;1.28;74.17;101893.61;1779513;80;21134;-42
2023/03/14 04:14:37;;;;;;;44.60;14.23;;;;;;;1.37;74.07;101894.20;1779015;80;21123;-42
2023/03/14 04:17:13;;;;;;;45.25;14.40;;;;;;;1.43;74.05;101889.10;1780197;80;21114;-44
2023/03/14 04:19:42;;;;;;;36.63;12.15;;;;;;;1.52;74.16;101887.95;1789752;80;21046;-42
2023/03/14 04:22:11;;;;;;;28.02;11.48;;;;;;;1.62;74.10;101890.70;1786840;80;21050;-44
2023/03/14 04:24:41;;;;;;;28.10;10.43;;;;;;;1.69;74.01;101889.96;1759577;81;21062;-46
2023/03/14 04:27:10;;;;;;;31.93;12.28;;;;;;;1.73;74.10;101885.26;1761495;81;21042;-43
2023/03/14 04:29:39;;;;;;;37.13;10.93;;;;;;;1.78;74.04;101892.70;1762717;80;21193;-44
2023/03/14 04:39:05;;;;;;;28.60;9.73;;;;;;;2.01;73.82;101894.77;1761828;80;21177;-44
2023/03/14 04:41:35;;;;;;;33.50;12.50;;;;;;;2.10;73.72;101893.60;1761407;81;21070;-42
2023/03/14 04:44:05;;;;;;;25.00;9.85;;;;;;;2.18;73.69;101888.11;1761489;81;21114;-43
2023/03/14 04:46:35;;;;;;;35.78;11.68;;;;;;;2.24;73.62;101880.38;1761491;81;21107;-44
2023/03/14 04:49:05;;;;;;;39.90;14.35;;;;;;;2.26;73.62;101890.80;1761195;80;21074;-46
2023/03/14 04:51:35;;;;;;;42.78;13.43;;;;;;;2.28;73.62;101886.06;1760009;81;21153;-42
2023/03/14 04:54:03;;;;;;;44.05;14.90;;;;;;;2.31;73.61;101884.81;1761513;81;21010;-45
2023/03/14 04:56:32;;;;;;;45.63;16.75;;;;;;;2.33;73.63;101886.14;1761475;81;21545;-43
2023/03/14 04:59:03;;;;;;;37.63;14.40;;;;;;;2.34;73.63;101883.97;1761487;81;21122;-43
2023/03/14 05:01:33;;;;;;;48.33;16.35;;;;;;;2.35;73.73;101874.47;1762639;80;21107;-44
2023/03/14 05:04:19;;;;;;;45.28;17.50;;;;;;;2.36;73.76;101863.20;1761460;81;21112;-43
2023/03/14 05:06:50;;;;;;;37.45;14.15;;;;;;;2.40;73.74;101863.28;1761079;81;21085;-44
2023/03/14 05:09:29;;;;;;;35.80;12.88;;;;;;;2.45;73.74;101871.12;1760174;81;21125;-44
2023/03/14 05:12:08;;;;;;;42.95;14.23;;;;;;;2.48;73.71;101877.23;1775187;80;21578;-43
2023/03/14 05:14:54;;;;;;;43.35;14.90;;;;;;;2.54;73.71;101876.87;1780053;80;21558;-42
2023/03/14 05:17:37;;;;;;;30.65;13.20;;;;;;;2.61;73.73;101872.19;1779535;80;21114;-42
2023/03/14 05:20:16;;;;;;;26.02;10.45;;;;;;;2.70;73.66;101860.16;1778378;79;21134;-42
2023/03/14 05:22:53;;;;;;;39.10;15.30;;;;;;;2.79;73.62;101872.41;1765085;80;21161;-44
2023/03/14 05:25:23;;;;;;;31.65;11.53;;;;;;;2.86;73.54;101879.86;1762963;81;21493;-43
2023/03/14 05:27:59;;;;;;;35.75;13.45;;;;;;;2.88;73.52;101863.40;1745092;81;21168;-43
2023/03/14 05:30:42;;;;;;;30.23;11.97;;;;;;;2.95;73.47;101863.45;1763703;81;21078;-42
2023/03/14 05:33:30;;;;;;;29.82;10.32;;;;;;;3.00;73.41;101861.34;1760475;81;21164;-42
2023/03/14 05:36:13;;;;;;;31.00;9.63;;;;;;;3.04;73.46;101864.44;1760517;81;21098;-44
2023/03/14 05:38:59;;;;;;;25.55;8.48;;;;;;;3.15;73.42;101873.63;1761295;81;21247;-43
2023/03/14 05:41:42;;;;;;;19.10;7.15;;;;;;;3.23;73.44;101868.53;1729216;82;21102;-42
2023/03/14 05:44:21;;;;;;;21.52;8.78;;;;;;;3.32;73.36;101872.92;1713542;84;21129;-42
2023/03/14 05:47:04;;;;;;;20.70;8.10;;;;;;;3.41;73.37;101869.99;1681313;81;21097;-43
2023/03/14 05:49:43;;;;;;;25.12;9.58;;;;;;;3.53;73.35;101870.52;1633167;87;21547;-42
2023/03/14 05:52:16;;;;;;;19.25;7.80;;;;;;;3.64;73.40;101865.39;1731387;82;21134;-42
2023/03/14 05:54:49;;;;;;;24.25;9.28;;;;;;;3.67;73.31;101874.11;1739661;82;21112;-42
2023/03/14 05:57:26;;;;;;;26.68;8.40;;;;;;;3.72;73.24;101875.42;1742002;82;21509;-42
2023/03/14 05:59:59;;;;;;;16.15;6.47;;;;;;;3.78;73.17;101878.09;1740686;82;21187;-42
2023/03/14 06:02:44;;;;;;;16.40;6.70;;;;;;;3.85;73.10;101881.19;1744030;82;21179;-42
2023/03/14 06:05:15;;;;;;;25.50;7.22;;;;;;;3.85;73.00;101870.77;1741240;82;21113;-42
2023/03/14 06:07:43;;;;;;;16.80;7.12;;;;;;;3.85;72.93;101861.65;1741769;82;21177;-43
2023/03/14 06:10:12;;;;;;;23.38;7.83;;;;;;;3.86;72.87;101865.12;1741901;82;21244;-43
2023/03/14 06:12:41;;;;;;;17.48;7.45;;;;;;;3.86;72.90;101869.02;1757788;82;21237;-43
2023/03/14 06:15:11;;;;;;;20.10;7.78;;;;;;;3.85;72.91;101871.17;1758246;82;21219;-43
2023/03/14 06:17:40;;;;;;;22.73;8.18;;;;;;;3.88;72.85;101884.67;1758396;82;21179;-43
2023/03/14 06:20:11;;;;;;;21.75;9.23;;;;;;;3.91;72.83;101875.14;1757919;82;21135;-42
2023/03/14 06:22:41;;;;;;;17.77;7.30;;;;;;;3.98;72.83;101864.31;1750630;82;21183;-42
2023/03/14 06:25:10;;;;;;;18.60;6.97;;;;;;;4.02;72.77;101855.64;1748943;82;21148;-42
2023/03/14 06:27:39;;;;;;;10.55;5.53;;;;;;;4.07;72.73;101835.70;1748901;82;21133;-42
2023/03/14 06:30:09;;;;;;;22.15;8.33;;;;;;;4.12;72.67;101837.91;1749064;81;21548;-42
2023/03/14 06:32:38;;;;;;;21.55;7.75;;;;;;;4.21;72.63;101844.47;1744122;82;21042;-42
2023/03/14 06:35:09;;;;;;;20.32;7.40;;;;;;;4.28;72.67;101842.77;1741237;81;21147;-43
2023/03/14 06:37:39;;;;;;;26.48;9.98;;;;;;;4.32;72.54;101844.97;1741325;82;21277;-42
2023/03/14 06:40:10;;;;;;;16.30;6.80;;;;;;;4.36;72.39;101841.50;1741652;82;21184;-42
2023/03/14 06:42:40;;;;;;;23.15;9.73;;;;;;;4.39;72.34;101844.99;1764944;80;21158;-42
2023/03/14 06:45:10;;;;;;;24.23;9.85;;;;;;;4.45;72.24;101849.36;1736855;83;21176;-42
2023/03/14 06:47:39;;;;;;;30.68;11.18;;;;;;;4.49;72.20;101847.64;1765697;81;21104;-42
2023/03/14 06:50:10;;;;;;;54.18;20.50;;;;;;;4.50;72.21;101842.43;1765591;81;21143;-42
2023/03/14 06:52:47;;;;;;;22.73;7.70;;;;;;;4.52;72.19;101835.48;1762910;80;21159;-42
2023/03/14 06:55:10;;;;;;;29.82;10.80;;;;;;;4.58;72.21;101832.88;1757993;81;21118;-44
2023/03/14 06:57:39;;;;;;;29.23;11.63;;;;;;;4.63;72.22;101832.47;1760624;81;21142;-43
2023/03/14 07:00:09;;;;;;;27.82;9.53;;;;;;;4.70;72.16;101830.73;1759350;81;21113;-44
2023/03/14 07:02:38;;;;;;;27.22;8.45;;;;;;;4.73;72.05;101837.71;1759461;81;21680;-42
2023/03/14 07:05:10;;;;;;;24.57;8.38;;;;;;;4.75;72.00;101832.06;1765617;81;21172;-43
2023/03/14 07:07:39;;;;;;;19.07;7.33;;;;;;;4.74;71.93;101823.37;1765521;81;21140;-42
2023/03/14 07:10:08;;;;;;;11.53;3.55;;;;;;;4.76;71.97;101824.69;1765497;81;21481;-46
2023/03/14 07:12:37;;;;;;;12.60;4.72;;;;;;;4.76;72.04;101822.08;1760073;81;21137;-43
2023/03/14 07:15:06;;;;;;;7.12;2.77;;;;;;;4.75;71.96;101825.54;1759515;81;21177;-43
2023/03/14 07:17:35;;;;;;;5.22;2.67;;;;;;;4.77;71.89;101818.58;1759691;81;21152;-43
2023/03/14 07:20:06;;;;;;;5.15;2.90;;;;;;;4.78;71.79;101816.42;1759583;81;21153;-43
2023/03/14 07:22:35;;;;;;;4.22;2.35;;;;;;;4.78;71.50;101809.90;1761949;81;21154;-45
2023/03/14 07:25:05;;;;;;;3.77;2.20;;;;;;;4.73;71.30;101815.53;1755734;81;21529;-44
2023/03/14 07:27:34;;;;;;;2.83;1.42;;;;;;;4.69;70.97;101813.80;1759420;81;21505;-42
2023/03/14 07:30:03;;;;;;;4.37;2.12;;;;;;;4.66;70.85;101810.72;1766406;80;21162;-42
2023/03/14 07:32:32;;;;;;;6.67;2.30;;;;;;;4.68;70.84;101802.91;1765705;81;21166;-42
2023/03/14 07:35:01;;;;;;;2.30;1.30;;;;;;;4.73;70.74;101799.88;1762660;81;21682;-44
2023/03/14 07:37:29;;;;;;;3.67;1.70;;;;;;;4.74;70.54;101805.52;1759629;81;21082;-43
2023/03/14 07:39:59;;;;;;;5.83;2.15;;;;;;;4.80;70.51;101801.64;1759259;81;21557;-44
2023/03/14 07:42:29;;;;;;;4.35;2.62;;;;;;;4.85;70.48;101806.44;1758921;81;21529;-44
2023/03/14 07:45:02;;;;;;;4.95;1.87;;;;;;;4.88;70.47;101799.90;1759463;81;21071;-44
2023/03/14 07:47:31;;;;;;;1.57;0.93;;;;;;;4.92;70.38;101804.69;1765721;81;21177;-43
2023/03/14 07:50:00;;;;;;;2.87;1.30;;;;;;;4.93;70.28;101806.00;1765736;81;21559;-44
2023/03/14 07:52:29;;;;;;;4.85;1.92;;;;;;;4.92;70.12;101802.94;1765726;81;21084;-44
2023/03/14 07:54:58;;;;;;;4.58;2.42;;;;;;;4.91;69.62;101806.87;1765097;81;21067;-43
2023/03/14 07:57:27;;;;;;;1.42;0.98;;;;;;;4.88;69.62;101797.29;1759450;81;21066;-44
2023/03/14 07:59:55;;;;;;;3.05;1.55;;;;;;;4.89;69.48;101799.05;1759413;81;21156;-42
2023/03/14 08:02:24;;;;;;;6.72;2.12;;;;;;;4.91;69.39;101796.00;1759482;81;21066;-44
2023/03/14 08:04:53;;;;;;;2.90;1.90;;;;;;;4.97;69.32;101786.00;1759506;81;21078;-46
2023/03/14 08:07:21;;;;;;;5.42;2.15;;;;;;;5.08;69.29;101786.88;1764604;81;21562;-42
2023/03/14 08:09:50;;;;;;;3.87;2.60;;;;;;;5.20;69.25;101785.98;1765748;81;21158;-43
2023/03/14 08:12:19;;;;;;;3.85;2.02;;;;;;;5.37;69.13;101772.51;1765744;81;21171;-42
2023/03/14 08:14:47;;;;;;;2.00;1.42;;;;;;;5.52;68.61;101779.90;1765822;81;21096;-42
2023/03/14 08:17:16;;;;;;;4.58;2.40;;;;;;;5.68;68.57;101778.11;1761579;81;21136;-43
2023/03/14 08:19:44;;;;;;;4.87;2.10;;;;;;;5.83;68.34;101782.42;1759483;81;21216;-42
2023/03/14 08:22:13;;;;;;;2.33;1.00;;;;;;;5.93;67.92;101778.92;1759414;81;21050;-44
2023/03/14 08:24:41;;;;;;;6.20;2.33;;;;;;;5.88;67.47;101778.92;1759694;81;21152;-44
2023/03/14 08:27:10;;;;;;;3.37;1.77;;;;;;;5.84;67.23;101780.27;1761797;81;21153;-44
2023/03/14 08:29:41;;;;;;;3.40;1.75;;;;;;;5.78;67.27;101785.93;1765622;81;21155;-44
2023/03/14 08:32:09;;;;;;;3.98;2.02;;;;;;;5.67;67.07;101779.86;1763859;80;21066;-42
2023/03/14 08:34:37;;;;;;;4.47;2.00;;;;;;;5.59;67.04;101789.47;1763428;80;21173;-42
2023/03/14 08:37:06;;;;;;;5.35;2.80;;;;;;;5.54;67.05;101788.59;1765648;81;21102;-42
2023/03/14 08:39:35;;;;;;;3.45;2.20;;;;;;;5.50;67.20;101789.48;1737959;82;21103;-44
2023/03/14 08:42:04;;;;;;;10.23;2.45;;;;;;;5.52;67.38;101795.57;1737926;82;21079;-44
2023/03/14 08:44:33;;;;;;;4.58;2.80;;;;;;;5.52;67.48;101792.96;1740433;81;21201;-44
2023/03/14 08:47:01;;;;;;;3.67;2.47;;;;;;;5.58;67.60;101785.97;1745611;82;21180;-44
2023/03/14 08:49:30;;;;;;;4.72;1.70;;;;;;;5.54;67.49;101788.59;1747718;81;21083;-42
2023/03/14 08:51:59;;;;;;;3.58;1.55;;;;;;;5.48;67.55;101781.64;1782190;79;21104;-48
2023/03/14 08:54:28;;;;;;;3.85;2.02;;;;;;;5.38;67.72;101780.76;1804263;79;21057;-55
2023/03/14 08:56:56;;;;;;;5.90;2.70;;;;;;;5.33;67.95;101782.53;1798669;79;21062;-47
2023/03/14 08:59:25;;;;;;;3.40;1.70;;;;;;;5.32;68.31;101788.61;1757375;81;21124;-45
2023/03/14 09:01:54;;;;;;;3.33;2.00;;;;;;;5.27;68.50;101782.51;1770059;81;21082;-48
2023/03/14 09:04:23;;;;;;;5.15;2.67;;;;;;;5.23;68.63;101782.08;1773640;81;21085;-56
2023/03/14 09:06:51;;;;;;;3.50;2.20;;;;;;;5.20;68.88;101771.63;1773646;81;21190;-55
2023/03/14 09:09:20;;;;;;;4.40;2.35;;;;;;;5.19;69.16;101772.52;1773616;80;21137;-45
2023/03/14 09:11:48;;;;;;;2.98;1.57;;;;;;;5.18;69.38;101774.27;1773563;81;21573;-55
2023/03/14 09:14:17;;;;;;;2.12;1.25;;;;;;;5.21;69.38;101772.94;1773683;81;21169;-51
2023/03/14 09:16:46;;;;;;;3.05;1.55;;;;;;;5.20;69.26;101772.94;1773595;81;21144;-51
2023/03/14 09:19:14;;;;;;;2.92;1.85;;;;;;;5.18;69.31;101776.88;1781052;79;21138;-45
2023/03/14 09:21:43;;;;;;;4.62;2.75;;;;;;;5.18;69.52;101773.38;1803268;79;21069;-45
2023/03/14 09:24:11;;;;;;;3.12;1.42;;;;;;;5.19;69.68;101769.91;1801932;79;21120;-45
2023/03/14 09:26:40;;;;;;;3.27;2.00;;;;;;;5.23;69.80;101771.64;1796608;79;21143;-42
2023/03/14 09:29:08;;;;;;;2.05;0.85;;;;;;;5.31;69.78;101776.44;1802760;79;21152;-45
2023/03/14 09:31:37;;;;;;;2.47;2.05;;;;;;;5.36;69.79;101768.59;1802674;79;21081;-51
2023/03/14 09:34:06;;;;;;;7.08;2.85;;;;;;;5.35;69.64;101766.86;1790129;79;21187;-48
2023/03/14 09:36:34;;;;;;;3.12;2.00;;;;;;;5.35;69.49;101772.95;1773498;81;21160;-37
2023/03/14 09:39:04;;;;;;;2.77;1.80;;;;;;;5.35;69.56;101774.70;1773642;81;21082;-43
2023/03/14 09:41:35;;;;;;;2.85;1.82;;;;;;;5.36;69.54;101763.36;1772866;81;21150;-42
2023/03/14 09:44:07;;;;;;;5.12;2.17;;;;;;;5.35;69.61;101750.75;1767848;80;21078;-41
2023/03/14 09:46:38;;;;;;;3.98;1.72;;;;;;;5.35;69.60;101741.61;1816010;78;21501;-40
2023/03/14 09:49:16;;;;;;;4.35;2.10;;;;;;;5.35;69.53;101745.52;1802244;78;21121;-50
2023/03/14 09:51:48;;;;;;;4.05;2.62;;;;;;;5.34;69.50;101745.08;1807700;79;21056;-50
2023/03/14 09:54:31;;;;;;;3.52;1.40;;;;;;;5.35;69.52;101734.22;1759360;81;21084;-47
2023/03/14 09:57:00;;;;;;;1.90;1.20;;;;;;;5.39;69.57;101735.95;1743915;80;21157;-48
2023/03/14 09:59:30;;;;;;;3.83;2.40;;;;;;;5.41;69.40;101718.08;1735255;83;21123;-55
2023/03/14 10:02:05;;;;;;;3.85;2.35;;;;;;;5.44;69.42;101725.06;1796853;80;21070;-59
2023/03/14 10:04:34;;;;;;;3.80;2.20;;;;;;;5.47;69.25;101732.87;1796824;80;21066;-49
2023/03/14 10:07:02;;;;;;;7.50;2.52;;;;;;;5.53;69.16;101738.10;1796775;80;21070;-44
2023/03/14 10:09:31;;;;;;;5.28;2.47;;;;;;;5.65;69.24;101738.49;1797959;78;21073;-51
2023/03/14 10:12:00;;;;;;;6.85;2.62;;;;;;;5.76;69.15;101750.23;1798759;78;21058;-51
2023/03/14 10:14:34;;;;;;;9.55;2.45;;;;;;;5.83;69.10;101747.14;1809191;78;21251;-56
2023/03/14 10:17:12;;;;;;;2.67;1.90;;;;;;;5.87;69.01;101731.45;1803775;78;21560;-57
2023/03/14 10:19:59;;;;;;;5.25;2.35;;;;;;;5.87;68.87;101727.98;1797427;80;21137;-52
2023/03/14 10:22:35;;;;;;;3.05;1.50;;;;;;;5.88;68.88;101728.39;1797285;80;21070;-58
2023/03/14 10:25:07;;;;;;;5.15;2.15;;;;;;;5.87;68.91;101731.91;1797467;80;21071;-55
2023/03/14 10:27:37;;;;;;;5.30;1.87;;;;;;;5.88;68.87;101721.86;1794225;80;21026;-55
2023/03/14 10:30:09;;;;;;;3.05;1.77;;;;;;;5.89;68.75;101735.37;1797485;80;21144;-56
2023/03/14 10:32:42;;;;;;;2.83;1.60;;;;;;;5.88;68.55;101733.62;1802683;78;21058;-47
2023/03/14 10:35:20;;;;;;;6.03;1.85;;;;;;;5.91;68.61;101733.62;1788219;80;21043;-39
2023/03/14 10:37:54;;;;;;;3.12;1.52;;;;;;;5.97;68.64;101728.39;1797479;80;21072;-38
2023/03/14 10:40:25;;;;;;;3.62;1.80;;;;;;;5.99;68.61;101727.53;1791392;80;21584;-38
2023/03/14 10:42:55;;;;;;;6.05;3.35;;;;;;;5.99;68.55;101727.53;1790680;80;21066;-38
2023/03/14 10:45:29;;;;;;;6.62;2.42;;;;;;;6.01;68.60;101731.42;1796823;79;21102;-38
2023/03/14 10:48:01;;;;;;;3.37;1.22;;;;;;;6.04;68.59;101732.72;1773570;81;21676;-46
2023/03/14 10:50:31;;;;;;;8.23;2.70;;;;;;;6.07;68.52;101714.83;1727721;82;21058;-49
2023/03/14 10:53:06;;;;;;;8.98;3.58;;;;;;;6.11;68.45;101704.37;1774167;79;21258;-49
2023/03/14 10:55:44;;;;;;;4.62;2.27;;;;;;;6.18;68.36;101702.16;1776898;81;21061;-46
2023/03/14 10:58:31;;;;;;;4.60;2.12;;;;;;;6.27;68.18;101700.34;1776793;79;21133;-40
2023/03/14 11:01:11;;;;;;;3.87;1.60;;;;;;;6.36;68.07;101700.30;1743625;81;21062;-39
2023/03/14 11:03:43;;;;;;;5.08;1.20;;;;;;;6.48;68.00;101702.84;1775448;79;21057;-39
2023/03/14 11:06:21;;;;;;;2.65;1.80;;;;;;;6.51;67.70;101705.45;1742689;82;21042;-38
2023/03/14 11:09:16;;;;;;;2.50;2.27;;;;;;;6.49;67.54;101703.28;1741693;82;21116;-39
2023/03/14 11:11:48;;;;;;;5.47;2.55;;;;;;;6.49;67.54;101696.74;1740521;81;21085;-40
2023/03/14 11:14:29;;;;;;;2.62;1.42;;;;;;;6.46;67.51;101701.98;1744052;82;21168;-38
2023/03/14 11:17:04;;;;;;;5.60;2.50;;;;;;;6.43;67.50;101692.84;1744013;82;21153;-40
2023/03/14 11:20:08;;;;;;;5.45;2.37;;;;;;;6.36;67.44;101689.83;1816768;78;21160;-39
2023/03/14 11:22:38;;;;;;;5.05;2.25;;;;;;;6.39;67.72;101681.97;1804317;79;21188;-40
2023/03/14 11:25:39;;;;;;;5.40;2.08;;;;;;;6.49;67.80;101670.58;1802167;78;21043;-39
2023/03/14 11:28:25;;;;;;;2.47;1.57;;;;;;;6.63;67.79;101669.59;1771925;78;21098;-39
2023/03/14 11:30:56;;;;;;;3.60;1.85;;;;;;;6.79;67.61;101659.44;1798707;78;21156;-50
2023/03/14 11:33:27;;;;;;;7.78;2.55;;;;;;;6.95;67.45;101658.84;1795192;78;21061;-52
2023/03/14 11:36:11;;;;;;;5.85;2.85;;;;;;;7.04;67.18;101643.48;1798968;79;21050;-48
2023/03/14 11:38:45;;;;;;;2.33;1.90;;;;;;;7.06;66.83;101656.98;1787424;79;21238;-47
2023/03/14 11:41:17;;;;;;;4.25;2.00;;;;;;;7.12;66.43;101648.23;1788712;79;21085;-40
2023/03/14 11:43:48;;;;;;;6.20;2.67;;;;;;;7.20;66.14;101637.66;1766503;81;21074;-40
2023/03/14 11:46:34;;;;;;;5.12;2.75;;;;;;;7.20;65.96;101643.77;1783979;79;21128;-41
2023/03/14 11:49:35;;;;;;;3.10;1.20;;;;;;;7.23;65.96;101642.43;1726145;80;21073;-40
2023/03/14 11:52:13;;;;;;;3.22;1.85;;;;;;;7.23;65.66;101637.19;1782168;80;21729;-39
2023/03/14 11:55:00;;;;;;;3.62;1.55;;;;;;;7.34;65.75;101647.11;1782664;80;21283;-41
2023/03/14 11:57:28;;;;;;;3.98;1.95;;;;;;;7.46;65.52;101639.98;1782363;80;21117;-40